createdAt,value
2023-02-20T00:00:46.597Z,19.16
2023-02-20T00:01:46.621Z,19.13
2023-02-20T00:02:46.686Z,19.16
2023-02-20T00:03:46.740Z,19.20
2023-02-20T00:04:46.675Z,19.20
2023-02-20T00:05:46.710Z,19.20
2023-02-20T00:06:46.756Z,19.20
2023-02-20T00:07:46.736Z,19.20
2023-02-20T00:08:46.712Z,19.20
2023-02-20T00:09:46.737Z,19.20
2023-02-20T00:10:46.768Z,19.20
2023-02-20T00:11:46.740Z,19.16
2023-02-20T00:12:46.776Z,19.16
2023-02-20T00:13:46.793Z,19.16
2023-02-20T00:14:46.833Z,19.17
2023-02-20T00:15:46.886Z,19.20
2023-02-20T00:16:46.790Z,19.16
2023-02-20T00:17:46.833Z,19.20
2023-02-20T00:18:46.835Z,19.21
2023-02-20T00:19:46.810Z,19.21
2023-02-20T00:20:46.836Z,19.21
2023-02-20T00:21:46.846Z,19.21
2023-02-20T00:22:46.892Z,19.16
2023-02-20T00:23:46.874Z,19.16
2023-02-20T00:24:46.901Z,19.17
2023-02-20T00:25:46.926Z,19.16
2023-02-20T00:26:46.944Z,19.17
2023-02-20T00:27:46.985Z,19.16
2023-02-20T00:28:46.954Z,19.16
2023-02-20T00:29:47.016Z,19.16
2023-02-20T00:30:47.025Z,19.15
2023-02-20T00:31:47.026Z,19.16
2023-02-20T00:32:47.327Z,19.15
2023-02-20T00:33:47.066Z,19.13
2023-02-20T00:34:47.077Z,19.15
2023-02-20T00:35:47.092Z,19.16
2023-02-20T00:36:47.112Z,19.17
2023-02-20T00:37:47.141Z,19.16
2023-02-20T00:38:47.202Z,19.16
2023-02-20T00:39:47.179Z,19.16
2023-02-20T00:40:47.215Z,19.16
2023-02-20T00:41:47.215Z,19.20
2023-02-20T00:42:47.237Z,19.20
2023-02-20T00:43:47.234Z,19.20
2023-02-20T00:44:47.216Z,19.16
2023-02-20T00:45:47.478Z,19.16
2023-02-20T00:46:47.339Z,19.15
2023-02-20T00:47:47.317Z,19.16
2023-02-20T00:48:47.288Z,19.17
2023-02-20T00:49:47.312Z,19.16
2023-02-20T00:50:47.337Z,19.12
2023-02-20T00:51:47.373Z,19.15
2023-02-20T00:52:47.378Z,19.13
2023-02-20T00:53:47.426Z,19.15
2023-02-20T00:54:47.347Z,19.15
2023-02-20T00:55:47.372Z,19.10
2023-02-20T00:56:47.441Z,19.12
2023-02-20T00:57:47.398Z,19.12
2023-02-20T00:58:47.452Z,19.12
2023-02-20T00:59:47.449Z,19.10
2023-02-20T01:00:47.428Z,19.15
2023-02-20T01:01:47.492Z,19.12
2023-02-20T01:02:47.512Z,19.12
2023-02-20T01:03:47.451Z,19.09
2023-02-20T01:04:47.496Z,19.09
2023-02-20T01:05:47.465Z,19.09
2023-02-20T01:06:47.516Z,19.10
2023-02-20T01:07:47.495Z,19.10
2023-02-20T01:08:47.554Z,19.10
2023-02-20T01:09:47.529Z,19.06
2023-02-20T01:10:47.558Z,19.07
2023-02-20T01:11:47.853Z,19.09
2023-02-20T01:12:47.602Z,19.10
2023-02-20T01:13:47.620Z,19.07
2023-02-20T01:14:47.645Z,19.05
2023-02-20T01:15:47.697Z,19.07
2023-02-20T01:16:47.685Z,19.05
2023-02-20T01:17:47.682Z,19.05
2023-02-20T01:18:47.706Z,19.05
2023-02-20T01:19:47.736Z,19.06
2023-02-20T01:20:47.758Z,19.09
2023-02-20T01:21:47.797Z,19.10
2023-02-20T01:22:47.801Z,19.10
2023-02-20T01:23:47.779Z,19.07
2023-02-20T01:24:47.797Z,19.09
2023-02-20T01:25:47.821Z,19.07
2023-02-20T01:26:47.864Z,19.12
2023-02-20T01:27:47.841Z,19.07
2023-02-20T01:28:47.858Z,19.09
2023-02-20T01:29:47.883Z,19.09
2023-02-20T01:30:47.909Z,19.06
2023-02-20T01:31:48.101Z,19.09
2023-02-20T01:32:47.954Z,19.10
2023-02-20T01:33:47.982Z,19.09
2023-02-20T01:34:48.007Z,19.06
2023-02-20T01:35:48.030Z,19.06
2023-02-20T01:36:48.060Z,19.06
2023-02-20T01:37:48.071Z,19.06
2023-02-20T01:38:48.097Z,19.07
2023-02-20T01:39:48.161Z,19.09
2023-02-20T01:40:48.142Z,19.06
2023-02-20T01:41:48.183Z,19.05
2023-02-20T01:42:48.163Z,19.07
2023-02-20T01:43:48.190Z,19.07
2023-02-20T01:44:48.231Z,19.09
2023-02-20T01:45:48.201Z,19.06
2023-02-20T01:46:48.268Z,19.06
2023-02-20T01:47:48.221Z,19.06
2023-02-20T01:48:48.244Z,19.06
2023-02-20T01:49:48.261Z,19.02
2023-02-20T01:50:48.285Z,19.07
2023-02-20T01:51:48.321Z,19.07
2023-02-20T01:52:48.321Z,19.09
2023-02-20T01:53:48.335Z,19.09
2023-02-20T01:54:48.365Z,19.06
2023-02-20T01:55:48.349Z,19.06
2023-02-20T01:56:48.404Z,19.06
2023-02-20T01:57:48.415Z,19.09
2023-02-20T01:58:48.393Z,19.07
2023-02-20T01:59:48.413Z,19.06
2023-02-20T02:00:48.467Z,19.05
2023-02-20T02:01:48.515Z,19.06
2023-02-20T02:02:48.476Z,19.06
2023-02-20T02:03:48.502Z,19.05
2023-02-20T02:04:48.517Z,19.05
2023-02-20T02:05:48.569Z,19.05
2023-02-20T02:06:48.565Z,19.05
2023-02-20T02:07:48.657Z,19.06
2023-02-20T02:08:48.589Z,19.07
2023-02-20T02:09:48.613Z,19.09
2023-02-20T02:10:48.638Z,19.07
2023-02-20T02:11:48.675Z,19.07
2023-02-20T02:12:48.654Z,19.09
2023-02-20T02:13:48.683Z,19.07
2023-02-20T02:14:48.708Z,19.09
2023-02-20T02:15:48.701Z,19.07
2023-02-20T02:16:48.703Z,19.07
2023-02-20T02:17:48.676Z,19.07
2023-02-20T02:18:48.699Z,19.07
2023-02-20T02:19:48.731Z,19.02
2023-02-20T02:20:48.760Z,19.06
2023-02-20T02:21:48.778Z,19.06
2023-02-20T02:22:48.838Z,19.05
2023-02-20T02:23:48.817Z,19.05
2023-02-20T02:24:48.835Z,19.06
2023-02-20T02:25:48.877Z,19.05
2023-02-20T02:26:48.867Z,19.07
2023-02-20T02:27:48.841Z,19.05
2023-02-20T02:28:48.851Z,19.01
2023-02-20T02:29:48.896Z,19.05
2023-02-20T02:30:48.891Z,19.02
2023-02-20T02:31:48.923Z,19.05
2023-02-20T02:32:48.868Z,19.05
2023-02-20T02:33:48.889Z,19.02
2023-02-20T02:34:48.912Z,19.05
2023-02-20T02:35:48.943Z,19.06
2023-02-20T02:36:48.982Z,19.01
2023-02-20T02:37:48.962Z,19.05
2023-02-20T02:38:49.008Z,19.06
2023-02-20T02:39:48.981Z,19.05
2023-02-20T02:40:48.999Z,19.02
2023-02-20T02:41:49.036Z,19.05
2023-02-20T02:42:49.064Z,19.07
2023-02-20T02:43:49.110Z,19.09
2023-02-20T02:44:49.088Z,19.07
2023-02-20T02:45:49.166Z,19.06
2023-02-20T02:46:49.132Z,19.01
2023-02-20T02:47:49.111Z,19.02
2023-02-20T02:48:49.133Z,19.01
2023-02-20T02:49:49.153Z,19.02
2023-02-20T02:50:49.175Z,19.06
2023-02-20T02:51:49.209Z,19.07
2023-02-20T02:52:49.291Z,19.07
2023-02-20T02:53:49.186Z,19.06
2023-02-20T02:54:49.236Z,19.06
2023-02-20T02:55:49.200Z,19.06
2023-02-20T02:56:49.238Z,19.07
2023-02-20T02:57:49.214Z,19.02
2023-02-20T02:58:49.194Z,19.05
2023-02-20T02:59:49.228Z,19.05
2023-02-20T03:00:49.275Z,19.05
2023-02-20T03:01:49.273Z,19.02
2023-02-20T03:02:49.369Z,19.02
2023-02-20T03:03:49.266Z,19.06
2023-02-20T03:04:49.294Z,19.07
2023-02-20T03:05:49.319Z,19.05
2023-02-20T03:06:49.318Z,19.07
2023-02-20T03:07:49.291Z,19.05
2023-02-20T03:08:49.319Z,19.05
2023-02-20T03:09:49.344Z,19.01
2023-02-20T03:10:49.393Z,19.06
2023-02-20T03:11:49.385Z,19.05
2023-02-20T03:12:49.358Z,19.05
2023-02-20T03:13:49.389Z,19.05
2023-02-20T03:14:49.408Z,19.05
2023-02-20T03:15:49.427Z,19.06
2023-02-20T03:16:49.533Z,19.06
2023-02-20T03:17:49.442Z,19.05
2023-02-20T03:18:49.423Z,19.02
2023-02-20T03:19:49.461Z,18.97
2023-02-20T03:20:49.495Z,18.99
2023-02-20T03:21:49.515Z,19.01
2023-02-20T03:22:49.529Z,18.99
2023-02-20T03:23:49.535Z,19.01
2023-02-20T03:24:49.560Z,19.01
2023-02-20T03:25:49.600Z,18.97
2023-02-20T03:26:49.651Z,18.97
2023-02-20T03:27:49.630Z,18.96
2023-02-20T03:28:49.651Z,18.97
2023-02-20T03:29:49.674Z,18.99
2023-02-20T03:30:49.701Z,18.97
2023-02-20T03:31:49.866Z,18.96
2023-02-20T03:32:49.734Z,18.99
2023-02-20T03:33:49.762Z,18.96
2023-02-20T03:34:49.787Z,18.93
2023-02-20T03:35:49.813Z,18.94
2023-02-20T03:36:49.837Z,18.91
2023-02-20T03:37:49.858Z,18.91
2023-02-20T03:38:49.883Z,18.89
2023-02-20T03:39:49.913Z,18.90
2023-02-20T03:40:49.900Z,18.93
2023-02-20T03:41:49.928Z,18.93
2023-02-20T03:42:49.929Z,18.94
2023-02-20T03:43:49.896Z,18.93
2023-02-20T03:44:49.918Z,18.93
2023-02-20T03:45:50.048Z,18.94
2023-02-20T03:46:49.970Z,18.96
2023-02-20T03:47:49.942Z,18.91
2023-02-20T03:48:49.975Z,18.94
2023-02-20T03:49:49.992Z,18.93
2023-02-20T03:50:50.017Z,18.93
2023-02-20T03:51:50.052Z,18.94
2023-02-20T03:52:50.027Z,18.90
2023-02-20T03:53:50.046Z,18.91
2023-02-20T03:54:50.058Z,18.93
2023-02-20T03:55:50.082Z,18.93
2023-02-20T03:56:50.109Z,18.91
2023-02-20T03:57:50.094Z,18.91
2023-02-20T03:58:50.130Z,18.91
2023-02-20T03:59:50.114Z,18.91
2023-02-20T04:00:50.134Z,18.91
2023-02-20T04:01:50.160Z,18.91
2023-02-20T04:02:50.141Z,18.94
2023-02-20T04:03:50.163Z,18.94
2023-02-20T04:04:50.151Z,18.93
2023-02-20T04:05:50.188Z,18.91
2023-02-20T04:06:50.211Z,18.89
2023-02-20T04:07:50.195Z,18.93
2023-02-20T04:08:50.225Z,18.90
2023-02-20T04:09:50.477Z,18.90
2023-02-20T04:10:50.246Z,18.89
2023-02-20T04:11:50.274Z,18.89
2023-02-20T04:12:50.263Z,18.87
2023-02-20T04:13:50.313Z,18.84
2023-02-20T04:14:50.309Z,18.86
2023-02-20T04:15:50.307Z,18.86
2023-02-20T04:16:50.455Z,18.87
2023-02-20T04:17:50.356Z,18.90
2023-02-20T04:18:50.322Z,18.90
2023-02-20T04:19:50.347Z,18.87
2023-02-20T04:20:50.363Z,18.86
2023-02-20T04:21:50.404Z,18.87
2023-02-20T04:22:50.385Z,18.87
2023-02-20T04:23:50.373Z,18.89
2023-02-20T04:24:50.396Z,18.86
2023-02-20T04:25:50.426Z,18.86
2023-02-20T04:26:50.469Z,18.87
2023-02-20T04:27:50.457Z,18.84
2023-02-20T04:28:50.479Z,18.89
2023-02-20T04:29:50.512Z,18.87
2023-02-20T04:30:50.634Z,18.89
2023-02-20T04:31:50.628Z,18.90
2023-02-20T04:32:50.534Z,18.86
2023-02-20T04:33:50.544Z,18.84
2023-02-20T04:34:50.569Z,18.89
2023-02-20T04:35:50.617Z,18.87
2023-02-20T04:36:50.589Z,18.89
2023-02-20T04:37:50.621Z,18.90
2023-02-20T04:38:50.644Z,18.89
2023-02-20T04:39:50.667Z,18.87
2023-02-20T04:40:50.738Z,18.86
2023-02-20T04:41:50.715Z,18.89
2023-02-20T04:42:50.753Z,18.90
2023-02-20T04:43:50.762Z,18.89
2023-02-20T04:44:50.788Z,18.87
2023-02-20T04:45:50.846Z,18.90
2023-02-20T04:46:50.846Z,18.90
2023-02-20T04:47:50.818Z,18.93
2023-02-20T04:48:50.845Z,18.91
2023-02-20T04:49:50.873Z,18.89
2023-02-20T04:50:50.898Z,18.84
2023-02-20T04:51:50.872Z,18.90
2023-02-20T04:52:50.912Z,18.89
2023-02-20T04:53:50.932Z,18.90
2023-02-20T04:54:50.908Z,18.96
2023-02-20T04:55:50.936Z,18.93
2023-02-20T04:56:50.968Z,18.91
2023-02-20T04:57:50.974Z,18.90
2023-02-20T04:58:51.016Z,18.93
2023-02-20T04:59:50.999Z,18.96
2023-02-20T05:00:51.022Z,18.94
2023-02-20T05:01:51.041Z,18.94
2023-02-20T05:02:51.086Z,18.90
2023-02-20T05:03:51.074Z,18.91
2023-02-20T05:04:51.191Z,18.91
2023-02-20T05:05:51.108Z,18.93
2023-02-20T05:06:51.146Z,18.93
2023-02-20T05:07:51.119Z,18.91
2023-02-20T05:08:51.149Z,18.91
2023-02-20T05:09:51.186Z,18.89
2023-02-20T05:10:51.155Z,18.89
2023-02-20T05:11:51.188Z,18.90
2023-02-20T05:12:51.216Z,18.90
2023-02-20T05:13:51.232Z,18.91
2023-02-20T05:14:51.264Z,18.90
2023-02-20T05:15:51.270Z,18.91
2023-02-20T05:16:51.294Z,18.90
2023-02-20T05:17:51.263Z,18.91
2023-02-20T05:18:51.308Z,18.89
2023-02-20T05:19:51.292Z,18.87
2023-02-20T05:20:51.287Z,18.90
2023-02-20T05:21:51.309Z,18.90
2023-02-20T05:22:51.328Z,18.86
2023-02-20T05:23:51.350Z,18.83
2023-02-20T05:24:51.358Z,18.83
2023-02-20T05:25:51.372Z,18.82
2023-02-20T05:26:51.629Z,18.83
2023-02-20T05:27:51.419Z,18.82
2023-02-20T05:28:51.438Z,18.79
2023-02-20T05:29:51.495Z,18.82
2023-02-20T05:30:51.533Z,18.84
2023-02-20T05:31:51.650Z,18.84
2023-02-20T05:32:51.554Z,18.83
2023-02-20T05:33:51.526Z,18.83
2023-02-20T05:34:51.589Z,18.82
2023-02-20T05:35:51.550Z,18.82
2023-02-20T05:36:51.577Z,18.83
2023-02-20T05:37:51.605Z,18.83
2023-02-20T05:38:51.626Z,18.83
2023-02-20T05:39:51.650Z,18.78
2023-02-20T05:40:51.635Z,18.79
2023-02-20T05:41:51.642Z,18.78
2023-02-20T05:42:51.674Z,18.82
2023-02-20T05:43:51.698Z,18.78
2023-02-20T05:44:51.736Z,18.78
2023-02-20T05:45:51.716Z,18.76
2023-02-20T05:46:51.740Z,18.78
2023-02-20T05:47:51.768Z,18.78
2023-02-20T05:48:51.797Z,18.75
2023-02-20T05:49:51.832Z,18.76
2023-02-20T05:50:51.863Z,18.76
2023-02-20T05:51:51.828Z,18.76
2023-02-20T05:52:51.863Z,18.75
2023-02-20T05:53:51.853Z,18.75
2023-02-20T05:54:51.851Z,18.75
2023-02-20T05:55:51.824Z,18.74
2023-02-20T05:56:51.854Z,18.74
2023-02-20T05:57:51.826Z,18.75
2023-02-20T05:58:51.846Z,18.74
2023-02-20T05:59:52.108Z,18.71
2023-02-20T06:02:17.821Z,18.72
2023-02-20T06:03:17.839Z,18.74
2023-02-20T06:04:18.007Z,18.71
2023-02-20T06:05:17.860Z,18.72
2023-02-20T06:06:17.883Z,18.74
2023-02-20T06:07:17.855Z,18.74
2023-02-20T06:08:17.881Z,18.72
2023-02-20T06:09:17.924Z,18.75
2023-02-20T06:10:17.896Z,18.75
2023-02-20T06:11:17.911Z,18.72
2023-02-20T06:12:17.936Z,18.72
2023-02-20T06:13:17.965Z,18.74
2023-02-20T06:14:17.986Z,18.69
2023-02-20T06:15:18.024Z,18.68
2023-02-20T06:16:18.007Z,18.69
2023-02-20T06:17:18.027Z,18.69
2023-02-20T06:18:18.026Z,18.68
2023-02-20T06:19:18.042Z,18.68
2023-02-20T06:20:18.068Z,18.68
2023-02-20T06:21:18.059Z,18.68
2023-02-20T06:22:18.099Z,18.66
2023-02-20T06:23:18.078Z,18.65
2023-02-20T06:24:18.102Z,18.68
2023-02-20T06:25:18.159Z,18.68
2023-02-20T06:26:18.140Z,18.66
2023-02-20T06:27:18.121Z,18.69
2023-02-20T06:28:18.165Z,18.69
2023-02-20T06:29:18.141Z,18.71
2023-02-20T06:30:18.210Z,18.72
2023-02-20T06:31:18.209Z,18.75
2023-02-20T06:32:18.207Z,18.74
2023-02-20T06:33:18.158Z,18.75
2023-02-20T06:34:18.217Z,18.76
2023-02-20T06:35:18.206Z,18.78
2023-02-20T06:36:18.200Z,18.76
2023-02-20T06:37:18.228Z,18.76
2023-02-20T06:38:18.242Z,18.76
2023-02-20T06:39:18.213Z,18.75
2023-02-20T06:40:18.200Z,18.76
2023-02-20T06:41:18.233Z,18.78
2023-02-20T06:42:18.264Z,18.78
2023-02-20T06:43:18.254Z,18.78
2023-02-20T06:44:18.251Z,18.82
2023-02-20T06:45:18.246Z,18.83
2023-02-20T06:46:18.243Z,18.82
2023-02-20T06:47:18.258Z,18.82
2023-02-20T06:48:18.259Z,18.79
2023-02-20T06:49:18.245Z,18.82
2023-02-20T06:50:18.288Z,18.82
2023-02-20T06:51:18.284Z,18.83
2023-02-20T06:52:18.277Z,18.86
2023-02-20T06:53:18.260Z,18.86
2023-02-20T06:54:18.312Z,18.84
2023-02-20T06:55:18.300Z,18.83
2023-02-20T06:56:18.290Z,18.83
2023-02-20T06:57:18.301Z,18.82
2023-02-20T06:58:18.289Z,18.86
2023-02-20T06:59:18.315Z,18.84
2023-02-20T07:00:18.349Z,18.79
2023-02-20T07:01:18.384Z,18.84
2023-02-20T07:02:18.494Z,18.82
2023-02-20T07:03:18.397Z,18.82
2023-02-20T07:04:18.417Z,18.86
2023-02-20T07:05:18.399Z,18.87
2023-02-20T07:06:18.393Z,18.83
2023-02-20T07:07:18.381Z,18.86
2023-02-20T07:08:18.420Z,18.89
2023-02-20T07:09:18.405Z,18.89
2023-02-20T07:10:18.467Z,18.91
2023-02-20T07:11:18.450Z,18.93
2023-02-20T07:12:18.478Z,18.91
2023-02-20T07:13:18.513Z,18.93
2023-02-20T07:14:18.497Z,18.91
2023-02-20T07:15:19.785Z,18.96
2023-02-20T07:16:18.630Z,18.91
2023-02-20T07:17:18.565Z,18.93
2023-02-20T07:18:18.567Z,18.90
2023-02-20T07:19:18.545Z,18.89
2023-02-20T07:20:18.569Z,18.87
2023-02-20T07:21:18.556Z,18.87
2023-02-20T07:22:18.581Z,18.82
2023-02-20T07:23:18.576Z,18.78
2023-02-20T07:24:18.565Z,18.79
2023-02-20T07:25:18.576Z,18.79
2023-02-20T07:26:18.586Z,18.79
2023-02-20T07:27:18.584Z,18.78
2023-02-20T07:28:18.561Z,18.74
2023-02-20T07:29:18.567Z,18.72
2023-02-20T07:30:18.565Z,18.72
2023-02-20T07:31:18.576Z,18.72
2023-02-20T07:32:18.590Z,18.72
2023-02-20T07:33:18.588Z,18.75
2023-02-20T07:34:18.576Z,18.72
2023-02-20T07:35:18.612Z,18.72
2023-02-20T07:36:18.633Z,18.72
2023-02-20T07:37:18.620Z,18.74
2023-02-20T07:38:18.651Z,18.79
2023-02-20T07:39:18.663Z,18.90
2023-02-20T07:40:18.697Z,18.93
2023-02-20T07:41:18.676Z,18.94
2023-02-20T07:42:18.727Z,18.97
2023-02-20T07:43:18.732Z,18.99
2023-02-20T07:44:18.718Z,19.05
2023-02-20T07:45:18.739Z,19.05
2023-02-20T07:46:20.331Z,19.05
2023-02-20T07:47:18.767Z,19.10
2023-02-20T07:48:18.790Z,19.10
2023-02-20T07:49:18.777Z,19.10
2023-02-20T07:50:18.803Z,19.10
2023-02-20T07:51:18.800Z,19.10
2023-02-20T07:52:18.829Z,19.23
2023-02-20T07:53:18.824Z,19.27
2023-02-20T07:54:18.810Z,19.28
2023-02-20T07:55:18.832Z,19.31
2023-02-20T07:56:18.828Z,19.28
2023-02-20T07:57:18.860Z,19.30
2023-02-20T07:58:18.879Z,19.39
2023-02-20T07:59:18.858Z,19.32
2023-02-20T08:00:18.880Z,19.31
2023-02-20T08:01:18.916Z,19.39
2023-02-20T08:02:18.898Z,19.42
2023-02-20T08:03:18.946Z,19.45
2023-02-20T08:04:18.947Z,19.45
2023-02-20T08:05:18.986Z,19.40
2023-02-20T08:06:18.943Z,19.45
2023-02-20T08:07:18.923Z,19.49
2023-02-20T08:08:18.932Z,19.49
2023-02-20T08:09:18.913Z,19.53
2023-02-20T08:10:18.900Z,19.53
2023-02-20T08:11:18.922Z,19.49
2023-02-20T08:12:18.933Z,19.45
2023-02-20T08:13:18.977Z,19.47
2023-02-20T08:14:18.986Z,19.50
2023-02-20T08:15:18.972Z,19.47
2023-02-20T08:16:19.058Z,19.52
2023-02-20T08:17:19.008Z,19.49
2023-02-20T08:18:23.786Z,19.47
2023-02-20T08:19:19.056Z,19.47
2023-02-20T08:20:19.038Z,19.50
2023-02-20T08:21:19.064Z,19.49
2023-02-20T08:22:19.050Z,19.50
2023-02-20T08:23:19.095Z,19.49
2023-02-20T08:24:19.125Z,19.50
2023-02-20T08:25:19.125Z,19.53
2023-02-20T08:26:19.058Z,19.52
2023-02-20T08:27:19.046Z,19.50
2023-02-20T08:28:19.055Z,19.53
2023-02-20T08:29:19.080Z,19.50
2023-02-20T08:30:19.164Z,19.53
2023-02-20T08:31:31.286Z,19.52
2023-02-20T08:32:19.227Z,19.53
2023-02-20T08:33:19.121Z,19.55
2023-02-20T08:34:19.099Z,19.55
2023-02-20T08:35:19.090Z,19.58
2023-02-20T08:36:19.124Z,19.61
2023-02-20T08:37:19.105Z,19.64
2023-02-20T08:38:19.149Z,19.64
2023-02-20T08:39:19.136Z,19.64
2023-02-20T08:40:19.155Z,19.67
2023-02-20T08:41:19.155Z,19.76
2023-02-20T08:42:19.142Z,19.79
2023-02-20T08:43:19.133Z,19.86
2023-02-20T08:44:19.122Z,19.83
2023-02-20T08:45:19.116Z,19.85
2023-02-20T08:46:19.170Z,19.87
2023-02-20T08:47:19.137Z,19.89
2023-02-20T08:48:19.178Z,19.95
2023-02-20T08:49:20.640Z,19.95
2023-02-20T08:50:19.209Z,19.98
2023-02-20T08:51:19.191Z,20.00
2023-02-20T08:52:19.214Z,19.97
2023-02-20T08:53:19.225Z,20.01
2023-02-20T08:54:19.201Z,20.04
2023-02-20T08:55:19.255Z,20.04
2023-02-20T08:56:19.254Z,20.07
2023-02-20T08:57:19.236Z,20.07
2023-02-20T08:58:19.268Z,20.05
2023-02-20T09:00:45.282Z,20.08
2023-02-20T09:01:45.270Z,20.12
2023-02-20T09:02:45.217Z,20.07
2023-02-20T09:03:45.224Z,20.07
2023-02-20T09:04:45.214Z,20.08
2023-02-20T09:05:45.254Z,20.07
2023-02-20T09:06:45.236Z,20.12
2023-02-20T09:07:45.298Z,20.13
2023-02-20T09:08:45.294Z,20.15
2023-02-20T09:09:45.289Z,20.15
2023-02-20T09:10:45.349Z,20.16
2023-02-20T09:11:45.309Z,20.19
2023-02-20T09:12:45.348Z,20.22
2023-02-20T09:13:45.394Z,20.23
2023-02-20T09:14:45.378Z,20.27
2023-02-20T09:15:45.390Z,20.26
2023-02-20T09:16:45.478Z,20.30
2023-02-20T09:17:45.471Z,20.26
2023-02-20T09:18:45.460Z,20.30
2023-02-20T09:19:45.533Z,20.27
2023-02-20T09:20:45.476Z,20.27
2023-02-20T09:21:45.445Z,20.31
2023-02-20T09:22:45.468Z,20.33
2023-02-20T09:23:45.512Z,20.34
2023-02-20T09:24:45.489Z,20.34
2023-02-20T09:25:45.510Z,20.34
2023-02-20T09:26:45.547Z,20.33
2023-02-20T09:27:45.576Z,20.33
2023-02-20T09:28:45.580Z,20.30
2023-02-20T09:29:45.576Z,20.30
2023-02-20T09:30:45.611Z,20.31
2023-02-20T09:31:45.682Z,20.33
2023-02-20T09:32:45.588Z,20.33
2023-02-20T09:33:50.659Z,20.31
2023-02-20T09:34:45.595Z,20.30
2023-02-20T09:35:45.588Z,20.31
2023-02-20T09:36:45.607Z,20.33
2023-02-20T09:37:45.641Z,20.34
2023-02-20T09:38:45.684Z,20.35
2023-02-20T09:39:45.675Z,20.38
2023-02-20T09:40:45.705Z,20.38
2023-02-20T09:41:45.741Z,20.38
2023-02-20T09:42:45.770Z,20.41
2023-02-20T09:43:45.805Z,20.41
2023-02-20T09:44:45.790Z,20.40
2023-02-20T09:45:45.919Z,20.42
2023-02-20T09:46:45.852Z,20.44
2023-02-20T09:47:45.835Z,20.44
2023-02-20T09:48:45.888Z,20.50
2023-02-20T09:49:45.913Z,20.56
2023-02-20T09:50:45.889Z,20.57
2023-02-20T09:51:45.884Z,20.57
2023-02-20T09:52:45.869Z,20.58
2023-02-20T09:53:45.900Z,20.57
2023-02-20T09:54:45.885Z,20.60
2023-02-20T09:55:45.900Z,20.60
2023-02-20T09:56:45.892Z,20.58
2023-02-20T09:57:45.912Z,20.61
2023-02-20T09:58:45.952Z,20.64
2023-02-20T09:59:45.925Z,20.64
2023-02-20T10:00:45.947Z,20.64
2023-02-20T10:01:45.979Z,20.72
2023-02-20T10:02:46.069Z,20.72
2023-02-20T10:03:46.038Z,20.75
2023-02-20T10:04:59.971Z,20.73
2023-02-20T10:05:47.434Z,20.73
2023-02-20T10:06:46.085Z,20.71
2023-02-20T10:07:46.128Z,20.71
2023-02-20T10:08:46.094Z,20.73
2023-02-20T10:09:46.078Z,20.72
2023-02-20T10:10:46.110Z,20.73
2023-02-20T10:11:46.144Z,20.73
2023-02-20T10:12:46.184Z,20.73
2023-02-20T10:13:46.218Z,20.75
2023-02-20T10:14:46.196Z,20.72
2023-02-20T10:15:46.225Z,20.76
2023-02-20T10:16:46.328Z,20.73
2023-02-20T10:17:46.284Z,20.73
2023-02-20T10:18:46.309Z,20.75
2023-02-20T10:19:46.304Z,20.75
2023-02-20T10:20:46.296Z,20.78
2023-02-20T10:21:46.358Z,20.76
2023-02-20T10:22:46.329Z,20.75
2023-02-20T10:23:51.358Z,20.78
2023-02-20T10:24:46.368Z,20.75
2023-02-20T10:25:46.406Z,20.75
2023-02-20T10:26:46.415Z,20.76
2023-02-20T10:27:46.394Z,20.75
2023-02-20T10:28:46.457Z,20.75
2023-02-20T10:29:46.409Z,20.76
2023-02-20T10:30:46.431Z,20.75
2023-02-20T10:31:46.598Z,20.76
2023-02-20T10:32:46.479Z,20.76
2023-02-20T10:33:47.530Z,20.78
2023-02-20T10:34:46.466Z,20.79
2023-02-20T10:35:46.499Z,20.81
2023-02-20T10:36:46.486Z,20.81
2023-02-20T10:37:48.089Z,20.83
2023-02-20T10:38:46.518Z,20.83
2023-02-20T10:39:46.550Z,20.87
2023-02-20T10:40:46.565Z,20.88
2023-02-20T10:41:46.589Z,20.90
2023-02-20T10:42:46.619Z,20.90
2023-02-20T10:43:46.602Z,20.88
2023-02-20T10:44:52.146Z,20.90
2023-02-20T10:45:46.680Z,20.90
2023-02-20T10:46:49.412Z,20.88
2023-02-20T10:47:46.693Z,20.90
2023-02-20T10:48:46.724Z,20.91
2023-02-20T10:49:46.777Z,20.90
2023-02-20T10:50:46.759Z,20.87
2023-02-20T10:51:46.743Z,20.87
2023-02-20T10:52:46.773Z,20.83
2023-02-20T10:53:46.785Z,20.83
2023-02-20T10:54:46.772Z,20.81
2023-02-20T10:57:12.662Z,20.76
2023-02-20T11:01:04.604Z,20.69
2023-02-20T11:09:14.073Z,20.51
2023-02-20T11:10:14.068Z,20.50
2023-02-20T11:11:14.359Z,20.46
2023-02-20T11:12:14.060Z,20.46
2023-02-20T11:13:14.080Z,20.46
2023-02-20T11:14:14.119Z,20.41
2023-02-20T11:15:14.133Z,20.40
2023-02-20T11:16:14.574Z,20.38
2023-02-20T11:17:14.160Z,20.40
2023-02-20T11:18:14.147Z,20.40
2023-02-20T11:19:14.190Z,20.42
2023-02-20T11:20:15.147Z,20.46
2023-02-20T11:21:14.172Z,20.44
2023-02-20T11:22:14.204Z,20.44
2023-02-20T11:23:14.245Z,20.46
2023-02-20T11:24:14.276Z,20.48
2023-02-20T11:25:14.282Z,20.44
2023-02-20T11:26:14.806Z,20.46
2023-02-20T11:27:14.306Z,20.42
2023-02-20T11:28:14.355Z,20.46
2023-02-20T11:29:14.368Z,20.41
2023-02-20T11:30:14.383Z,20.42
2023-02-20T11:31:14.360Z,20.42
2023-02-20T11:32:14.422Z,20.40
2023-02-20T11:33:14.385Z,20.38
2023-02-20T11:34:15.594Z,20.38
2023-02-20T11:35:14.398Z,20.41
2023-02-20T11:36:14.985Z,20.40
2023-02-20T11:37:14.396Z,20.40
2023-02-20T11:38:14.476Z,20.41
2023-02-20T11:39:14.418Z,20.41
2023-02-20T11:40:14.438Z,20.40
2023-02-20T11:41:14.446Z,20.37
2023-02-20T11:42:14.459Z,20.38
2023-02-20T11:43:14.449Z,20.37
2023-02-20T11:44:14.453Z,20.35
2023-02-20T11:45:14.466Z,20.37
2023-02-20T11:46:14.807Z,20.34
2023-02-20T11:47:14.534Z,20.35
2023-02-20T11:48:14.556Z,20.35
2023-02-20T11:49:14.553Z,20.33
2023-02-20T11:50:19.593Z,20.33
2023-02-20T11:51:14.583Z,20.34
2023-02-20T11:52:14.579Z,20.34
2023-02-20T11:53:14.564Z,20.34
2023-02-20T11:54:14.632Z,20.34
2023-02-20T11:55:14.599Z,20.33
2023-02-20T11:56:15.032Z,20.34
2023-02-20T11:57:14.713Z,20.33
2023-02-20T11:58:14.701Z,20.34
2023-02-20T11:59:14.712Z,20.37
2023-02-20T12:00:14.705Z,20.37
2023-02-20T12:01:14.728Z,20.37
2023-02-20T12:02:14.718Z,20.37
2023-02-20T12:03:14.742Z,20.38
2023-02-20T12:04:14.784Z,20.38
2023-02-20T12:05:14.814Z,20.40
2023-02-20T12:06:15.186Z,20.38
2023-02-20T12:07:14.750Z,20.38
2023-02-20T12:08:14.781Z,20.38
2023-02-20T12:09:14.766Z,20.38
2023-02-20T12:10:14.842Z,20.41
2023-02-20T12:11:14.783Z,20.38
2023-02-20T12:12:14.844Z,20.35
2023-02-20T12:13:14.878Z,20.30
2023-02-20T12:14:14.842Z,20.31
2023-02-20T12:15:14.829Z,20.27
2023-02-20T12:16:15.386Z,20.26
2023-02-20T12:17:14.842Z,20.27
2023-02-20T12:18:14.896Z,20.31
2023-02-20T12:19:14.878Z,20.31
2023-02-20T12:20:14.877Z,20.33
2023-02-20T12:21:14.909Z,20.33
2023-02-20T12:22:14.927Z,20.30
2023-02-20T12:23:14.946Z,20.30
2023-02-20T12:24:14.922Z,20.27
2023-02-20T12:25:14.954Z,20.33
2023-02-20T12:26:15.158Z,20.35
2023-02-20T12:27:15.143Z,20.38
2023-02-20T12:28:14.987Z,20.33
2023-02-20T12:29:14.994Z,20.34
2023-02-20T12:30:15.142Z,20.33
2023-02-20T12:31:15.175Z,20.35
2023-02-20T12:32:15.202Z,20.38
2023-02-20T12:33:15.028Z,20.37
2023-02-20T12:34:15.016Z,20.35
2023-02-20T12:35:15.038Z,20.35
2023-02-20T12:36:15.290Z,20.34
2023-02-20T12:37:15.062Z,20.35
2023-02-20T12:38:15.104Z,20.38
2023-02-20T12:39:15.099Z,20.40
2023-02-20T12:40:15.084Z,20.38
2023-02-20T12:41:15.105Z,20.37
2023-02-20T12:42:15.135Z,20.35
2023-02-20T12:43:15.175Z,20.35
2023-02-20T12:44:15.159Z,20.35
2023-02-20T12:45:15.235Z,20.33
2023-02-20T12:46:15.498Z,20.34
2023-02-20T12:47:15.210Z,20.33
2023-02-20T12:48:15.243Z,20.30
2023-02-20T12:49:15.238Z,20.27
2023-02-20T12:50:15.265Z,20.27
2023-02-20T12:51:15.293Z,20.27
2023-02-20T12:52:15.325Z,20.31
2023-02-20T12:53:15.371Z,20.34
2023-02-20T12:54:15.367Z,20.34
2023-02-20T12:55:16.474Z,20.31
2023-02-20T12:56:15.550Z,20.33
2023-02-20T12:57:15.424Z,20.33
2023-02-20T12:58:15.420Z,20.33
2023-02-20T12:59:15.411Z,20.34
2023-02-20T13:00:15.457Z,20.33
2023-02-20T13:01:15.554Z,20.34
2023-02-20T13:02:15.467Z,20.34
2023-02-20T13:03:15.460Z,20.35
2023-02-20T13:04:15.449Z,20.34
2023-02-20T13:05:15.444Z,20.35
2023-02-20T13:06:15.625Z,20.34
2023-02-20T13:07:15.426Z,20.35